sensor_id;sensor_type;location;lat;lon;timestamp;pressure;altitude;pressure_sealevel;temperature;humidity
5522;BME280;2783;48.730;8.006;2023-02-10T00:02:20;102123.34;;;-0.50;95.77
5522;BME280;2783;48.730;8.006;2023-02-10T00:04:46;102120.78;;;-0.48;95.72
5522;BME280;2783;48.730;8.006;2023-02-10T00:07:11;102116.44;;;-0.48;94.96
5522;BME280;2783;48.730;8.006;2023-02-10T00:09:36;102114.78;;;-0.46;94.76
5522;BME280;2783;48.730;8.006;2023-02-10T00:12:02;102112.09;;;-0.47;94.51
5522;BME280;2783;48.730;8.006;2023-02-10T00:14:27;102108.59;;;-0.48;94.36
5522;BME280;2783;48.730;8.006;2023-02-10T00:16:54;102109.56;;;-0.46;94.66
5522;BME280;2783;48.730;8.006;2023-02-10T00:19:20;102112.16;;;-0.46;94.11
5522;BME280;2783;48.730;8.006;2023-02-10T00:21:46;102110.78;;;-0.38;95.47
5522;BME280;2783;48.730;8.006;2023-02-10T00:24:11;102106.66;;;-0.33;95.39
5522;BME280;2783;48.730;8.006;2023-02-10T00:26:36;102116.38;;;-0.30;94.67
5522;BME280;2783;48.730;8.006;2023-02-10T00:29:02;102117.53;;;-0.24;94.91
5522;BME280;2783;48.730;8.006;2023-02-10T00:31:27;102114.88;;;-0.25;95.30
5522;BME280;2783;48.730;8.006;2023-02-10T00:33:53;102117.41;;;-0.27;94.29
5522;BME280;2783;48.730;8.006;2023-02-10T00:36:18;102115.59;;;-0.28;94.70
5522;BME280;2783;48.730;8.006;2023-02-10T00:38:44;102108.72;;;-0.26;94.35
5522;BME280;2783;48.730;8.006;2023-02-10T00:41:11;102116.50;;;-0.27;93.78
5522;BME280;2783;48.730;8.006;2023-02-10T00:43:36;102110.25;;;-0.31;93.86
5522;BME280;2783;48.730;8.006;2023-02-10T00:46:04;102113.69;;;-0.32;93.73
5522;BME280;2783;48.730;8.006;2023-02-10T00:48:29;102130.25;;;-0.31;93.98
5522;BME280;2783;48.730;8.006;2023-02-10T00:50:55;102125.94;;;-0.31;94.09
5522;BME280;2783;48.730;8.006;2023-02-10T00:53:20;102129.44;;;-0.30;93.97
5522;BME280;2783;48.730;8.006;2023-02-10T00:55:45;102134.88;;;-0.26;94.76
5522;BME280;2783;48.730;8.006;2023-02-10T00:58:11;102129.16;;;-0.17;95.07
5522;BME280;2783;48.730;8.006;2023-02-10T01:00:36;102136.28;;;-0.13;95.11
5522;BME280;2783;48.730;8.006;2023-02-10T01:03:01;102140.78;;;-0.11;94.89
5522;BME280;2783;48.730;8.006;2023-02-10T01:05:26;102136.41;;;-0.12;94.06
5522;BME280;2783;48.730;8.006;2023-02-10T01:07:52;102131.97;;;-0.13;93.69
5522;BME280;2783;48.730;8.006;2023-02-10T01:10:20;102126.63;;;-0.16;94.27
5522;BME280;2783;48.730;8.006;2023-02-10T01:12:46;102128.69;;;-0.09;93.99
5522;BME280;2783;48.730;8.006;2023-02-10T01:15:11;102135.50;;;-0.12;93.11
5522;BME280;2783;48.730;8.006;2023-02-10T01:17:36;102131.84;;;-0.16;93.22
5522;BME280;2783;48.730;8.006;2023-02-10T01:20:02;102135.97;;;-0.21;92.61
5522;BME280;2783;48.730;8.006;2023-02-10T01:22:28;102139.38;;;-0.23;93.02
5522;BME280;2783;48.730;8.006;2023-02-10T01:24:53;102144.84;;;-0.17;93.66
5522;BME280;2783;48.730;8.006;2023-02-10T01:27:18;102152.88;;;-0.13;94.02
5522;BME280;2783;48.730;8.006;2023-02-10T01:29:44;102160.19;;;-0.06;94.42
5522;BME280;2783;48.730;8.006;2023-02-10T01:32:09;102157.44;;;-0.09;93.82
5522;BME280;2783;48.730;8.006;2023-02-10T01:34:35;102160.66;;;-0.14;93.78
5522;BME280;2783;48.730;8.006;2023-02-10T01:37:01;102163.34;;;-0.13;94.08
5522;BME280;2783;48.730;8.006;2023-02-10T01:39:26;102163.41;;;-0.11;94.16
5522;BME280;2783;48.730;8.006;2023-02-10T01:41:51;102173.69;;;-0.16;93.61
5522;BME280;2783;48.730;8.006;2023-02-10T01:46:45;102178.47;;;-0.25;93.13
5522;BME280;2783;48.730;8.006;2023-02-10T01:49:10;102180.50;;;-0.38;93.15
5522;BME280;2783;48.730;8.006;2023-02-10T01:51:43;102182.75;;;-0.46;93.20
5522;BME280;2783;48.730;8.006;2023-02-10T01:54:11;102191.13;;;-0.53;92.75
5522;BME280;2783;48.730;8.006;2023-02-10T01:56:38;102185.41;;;-0.63;92.78
5522;BME280;2783;48.730;8.006;2023-02-10T01:59:03;102191.94;;;-0.73;92.83
5522;BME280;2783;48.730;8.006;2023-02-10T02:01:28;102193.56;;;-0.75;93.03
5522;BME280;2783;48.730;8.006;2023-02-10T02:03:54;102191.69;;;-0.77;93.24
5522;BME280;2783;48.730;8.006;2023-02-10T02:06:19;102201.94;;;-0.82;93.49
5522;BME280;2783;48.730;8.006;2023-02-10T02:08:44;102196.50;;;-0.86;93.64
5522;BME280;2783;48.730;8.006;2023-02-10T02:24:21;102189.53;;;-0.68;96.05
5522;BME280;2783;48.730;8.006;2023-02-10T02:26:55;102184.88;;;-0.56;95.98
5522;BME280;2783;48.730;8.006;2023-02-10T02:34:53;102195.41;;;-0.36;96.50
5522;BME280;2783;48.730;8.006;2023-02-10T02:37:54;102189.44;;;-0.33;95.80
5522;BME280;2783;48.730;8.006;2023-02-10T02:40:14;102183.19;;;-0.37;95.39
5522;BME280;2783;48.730;8.006;2023-02-10T02:42:40;102190.06;;;-0.39;95.43
5522;BME280;2783;48.730;8.006;2023-02-10T02:45:06;102181.38;;;-0.38;95.75
5522;BME280;2783;48.730;8.006;2023-02-10T02:52:42;102189.25;;;-0.19;96.95
5522;BME280;2783;48.730;8.006;2023-02-10T02:55:14;102191.09;;;-0.16;96.49
5522;BME280;2783;48.730;8.006;2023-02-10T02:57:45;102189.38;;;-0.16;96.34
5522;BME280;2783;48.730;8.006;2023-02-10T03:00:15;102180.56;;;-0.18;95.99
5522;BME280;2783;48.730;8.006;2023-02-10T03:02:41;102180.63;;;-0.16;96.43
5522;BME280;2783;48.730;8.006;2023-02-10T03:05:08;102184.16;;;-0.16;96.58
5522;BME280;2783;48.730;8.006;2023-02-10T03:07:34;102175.63;;;-0.12;97.15
5522;BME280;2783;48.730;8.006;2023-02-10T03:09:59;102174.84;;;-0.09;97.04
5522;BME280;2783;48.730;8.006;2023-02-10T03:12:24;102184.41;;;-0.10;97.17
5522;BME280;2783;48.730;8.006;2023-02-10T03:14:49;102186.22;;;-0.09;97.37
5522;BME280;2783;48.730;8.006;2023-02-10T03:17:15;102189.56;;;-0.11;96.85
5522;BME280;2783;48.730;8.006;2023-02-10T03:19:41;102135.56;;;-0.49;96.05
5522;BME280;2783;48.730;8.006;2023-02-10T03:22:06;102204.78;;;-0.22;96.25
5522;BME280;2783;48.730;8.006;2023-02-10T03:24:31;102210.91;;;-0.21;96.84
5522;BME280;2783;48.730;8.006;2023-02-10T03:26:56;102210.16;;;-0.19;96.20
5522;BME280;2783;48.730;8.006;2023-02-10T03:29:22;102209.97;;;-0.23;96.12
5522;BME280;2783;48.730;8.006;2023-02-10T03:31:48;102218.28;;;-0.32;95.28
5522;BME280;2783;48.730;8.006;2023-02-10T03:34:14;102225.66;;;-0.41;95.66
5522;BME280;2783;48.730;8.006;2023-02-10T03:36:40;102228.75;;;-0.49;95.86
5522;BME280;2783;48.730;8.006;2023-02-10T03:39:05;102232.66;;;-0.59;95.77
5522;BME280;2783;48.730;8.006;2023-02-10T03:41:30;102230.44;;;-0.69;95.86
5522;BME280;2783;48.730;8.006;2023-02-10T03:43:56;102233.59;;;-0.76;95.61
5522;BME280;2783;48.730;8.006;2023-02-10T03:46:21;102228.38;;;-0.76;96.30
5522;BME280;2783;48.730;8.006;2023-02-10T03:48:46;102233.41;;;-0.79;96.16
5522;BME280;2783;48.730;8.006;2023-02-10T03:51:12;102228.06;;;-0.82;96.58
5522;BME280;2783;48.730;8.006;2023-02-10T03:53:37;102232.63;;;-0.78;97.74
5522;BME280;2783;48.730;8.006;2023-02-10T03:56:03;102242.50;;;-0.71;97.61
5522;BME280;2783;48.730;8.006;2023-02-10T03:58:28;102233.81;;;-0.71;97.71
5522;BME280;2783;48.730;8.006;2023-02-10T04:00:53;102240.75;;;-0.72;97.75
5522;BME280;2783;48.730;8.006;2023-02-10T04:03:19;102232.06;;;-0.71;97.82
5522;BME280;2783;48.730;8.006;2023-02-10T04:05:44;102230.75;;;-0.63;98.14
5522;BME280;2783;48.730;8.006;2023-02-10T04:08:10;102241.47;;;-0.57;98.36
5522;BME280;2783;48.730;8.006;2023-02-10T04:10:35;102238.03;;;-0.56;98.75
5522;BME280;2783;48.730;8.006;2023-02-10T04:13:00;102234.88;;;-0.49;99.32
5522;BME280;2783;48.730;8.006;2023-02-10T04:15:26;102227.31;;;-0.43;99.44
5522;BME280;2783;48.730;8.006;2023-02-10T04:17:51;102229.31;;;-0.37;99.68
5522;BME280;2783;48.730;8.006;2023-02-10T04:20:16;102234.63;;;-0.36;99.47
5522;BME280;2783;48.730;8.006;2023-02-10T04:22:42;102233.97;;;-0.32;99.66
5522;BME280;2783;48.730;8.006;2023-02-10T04:25:08;102224.16;;;-0.36;99.03
5522;BME280;2783;48.730;8.006;2023-02-10T04:27:33;102231.75;;;-0.42;98.68
5522;BME280;2783;48.730;8.006;2023-02-10T04:29:58;102235.16;;;-0.43;99.12
5522;BME280;2783;48.730;8.006;2023-02-10T04:32:23;102227.47;;;-0.40;99.31
5522;BME280;2783;48.730;8.006;2023-02-10T04:34:49;102233.66;;;-0.38;98.98
5522;BME280;2783;48.730;8.006;2023-02-10T04:37:14;102233.66;;;-0.38;98.34
5522;BME280;2783;48.730;8.006;2023-02-10T04:39:39;102242.06;;;-0.45;97.89
5522;BME280;2783;48.730;8.006;2023-02-10T04:42:05;102240.03;;;-0.50;97.83
5522;BME280;2783;48.730;8.006;2023-02-10T04:44:30;102241.53;;;-0.55;97.40
5522;BME280;2783;48.730;8.006;2023-02-10T04:46:55;102238.78;;;-0.58;97.55
5522;BME280;2783;48.730;8.006;2023-02-10T04:49:20;102237.59;;;-0.65;97.73
5522;BME280;2783;48.730;8.006;2023-02-10T04:51:46;102245.38;;;-0.66;97.67
5522;BME280;2783;48.730;8.006;2023-02-10T04:54:11;102242.75;;;-0.66;97.96
5522;BME280;2783;48.730;8.006;2023-02-10T04:56:36;102244.31;;;-0.70;97.72
5522;BME280;2783;48.730;8.006;2023-02-10T04:59:02;102242.50;;;-0.71;97.63
5522;BME280;2783;48.730;8.006;2023-02-10T05:01:27;102238.19;;;-0.70;98.03
5522;BME280;2783;48.730;8.006;2023-02-10T05:03:52;102224.91;;;-0.75;97.88
5522;BME280;2783;48.730;8.006;2023-02-10T05:06:17;102237.22;;;-0.72;97.86
5522;BME280;2783;48.730;8.006;2023-02-10T05:08:43;102233.59;;;-0.76;97.73
5522;BME280;2783;48.730;8.006;2023-02-10T05:11:09;102237.00;;;-0.77;97.60
5522;BME280;2783;48.730;8.006;2023-02-10T05:13:34;102244.69;;;-0.80;97.02
5522;BME280;2783;48.730;8.006;2023-02-10T05:15:59;102253.38;;;-0.81;97.23
5522;BME280;2783;48.730;8.006;2023-02-10T05:18:27;102252.41;;;-0.83;97.23
5522;BME280;2783;48.730;8.006;2023-02-10T05:20:52;102250.44;;;-0.87;96.96
5522;BME280;2783;48.730;8.006;2023-02-10T05:23:17;102255.53;;;-0.90;97.62
5522;BME280;2783;48.730;8.006;2023-02-10T05:25:43;102249.31;;;-0.92;97.63
5522;BME280;2783;48.730;8.006;2023-02-10T05:28:10;102250.00;;;-0.96;97.86
5522;BME280;2783;48.730;8.006;2023-02-10T05:30:35;102250.81;;;-0.97;97.61
5522;BME280;2783;48.730;8.006;2023-02-10T05:33:00;102252.31;;;-1.02;97.32
5522;BME280;2783;48.730;8.006;2023-02-10T05:35:25;102259.19;;;-1.04;97.69
5522;BME280;2783;48.730;8.006;2023-02-10T05:37:51;102260.91;;;-1.04;97.42
5522;BME280;2783;48.730;8.006;2023-02-10T05:40:16;102271.91;;;-1.10;97.64
5522;BME280;2783;48.730;8.006;2023-02-10T05:42:41;102278.69;;;-1.13;97.63
5522;BME280;2783;48.730;8.006;2023-02-10T05:45:07;102281.22;;;-1.15;97.56
5522;BME280;2783;48.730;8.006;2023-02-10T05:47:32;102282.22;;;-1.13;98.06
5522;BME280;2783;48.730;8.006;2023-02-10T05:49:57;102294.44;;;-1.12;98.40
5522;BME280;2783;48.730;8.006;2023-02-10T05:52:22;102290.28;;;-1.08;98.24
5522;BME280;2783;48.730;8.006;2023-02-10T05:54:48;102293.94;;;-1.05;98.81
5522;BME280;2783;48.730;8.006;2023-02-10T05:57:13;102307.31;;;-0.99;98.73
5522;BME280;2783;48.730;8.006;2023-02-10T05:59:38;102305.56;;;-0.98;99.05
5522;BME280;2783;48.730;8.006;2023-02-10T06:02:03;102317.44;;;-1.05;98.18
5522;BME280;2783;48.730;8.006;2023-02-10T06:04:29;102319.66;;;-1.12;97.63
5522;BME280;2783;48.730;8.006;2023-02-10T06:06:54;102314.88;;;-1.21;97.38
5522;BME280;2783;48.730;8.006;2023-02-10T06:09:19;102312.75;;;-1.28;97.67
5522;BME280;2783;48.730;8.006;2023-02-10T06:11:47;102316.91;;;-1.32;97.78
5522;BME280;2783;48.730;8.006;2023-02-10T06:14:12;102324.53;;;-1.36;97.88
5522;BME280;2783;48.730;8.006;2023-02-10T06:16:37;102335.53;;;-1.42;98.07
5522;BME280;2783;48.730;8.006;2023-02-10T06:19:03;102332.69;;;-1.46;97.13
5522;BME280;2783;48.730;8.006;2023-02-10T06:21:29;102338.59;;;-1.50;97.32
5522;BME280;2783;48.730;8.006;2023-02-10T06:23:54;102328.78;;;-1.54;98.08
5522;BME280;2783;48.730;8.006;2023-02-10T06:26:20;102339.06;;;-1.57;97.66
5522;BME280;2783;48.730;8.006;2023-02-10T06:28:45;102335.47;;;-1.59;97.56
5522;BME280;2783;48.730;8.006;2023-02-10T06:31:10;102342.16;;;-1.64;97.71
5522;BME280;2783;48.730;8.006;2023-02-10T06:33:36;102348.03;;;-1.68;97.98
5522;BME280;2783;48.730;8.006;2023-02-10T06:36:04;102354.06;;;-1.69;97.52
5522;BME280;2783;48.730;8.006;2023-02-10T06:38:31;102348.75;;;-1.71;98.08
5522;BME280;2783;48.730;8.006;2023-02-10T06:40:57;102348.69;;;-1.72;98.51
5522;BME280;2783;48.730;8.006;2023-02-10T06:43:22;102347.78;;;-1.73;98.74
5522;BME280;2783;48.730;8.006;2023-02-10T06:45:47;102351.13;;;-1.75;98.59
5522;BME280;2783;48.730;8.006;2023-02-10T06:48:13;102355.59;;;-1.73;98.64
5522;BME280;2783;48.730;8.006;2023-02-10T06:50:38;102348.69;;;-1.72;98.51
5522;BME280;2783;48.730;8.006;2023-02-10T06:53:04;102362.03;;;-1.66;98.89
5522;BME280;2783;48.730;8.006;2023-02-10T06:55:29;102359.25;;;-1.53;99.40
5522;BME280;2783;48.730;8.006;2023-02-10T06:57:57;102359.69;;;-1.46;98.95
5522;BME280;2783;48.730;8.006;2023-02-10T07:00:23;102354.06;;;-1.37;99.56
5522;BME280;2783;48.730;8.006;2023-02-10T07:02:48;102354.53;;;-1.28;99.99
5522;BME280;2783;48.730;8.006;2023-02-10T07:05:13;102363.78;;;-1.17;100.00
5522;BME280;2783;48.730;8.006;2023-02-10T07:07:38;102354.97;;;-1.03;100.00
5522;BME280;2783;48.730;8.006;2023-02-10T07:10:04;102354.69;;;-0.91;100.00
5522;BME280;2783;48.730;8.006;2023-02-10T07:12:30;102353.44;;;-0.82;100.00
5522;BME280;2783;48.730;8.006;2023-02-10T07:14:55;102347.63;;;-0.76;100.00
5522;BME280;2783;48.730;8.006;2023-02-10T07:17:20;102345.16;;;-0.73;100.00
5522;BME280;2783;48.730;8.006;2023-02-10T07:19:46;102356.09;;;-0.64;100.00
5522;BME280;2783;48.730;8.006;2023-02-10T07:22:11;102350.09;;;-0.62;100.00
5522;BME280;2783;48.730;8.006;2023-02-10T07:24:37;102356.31;;;-0.60;99.89
5522;BME280;2783;48.730;8.006;2023-02-10T07:27:02;102348.16;;;-0.66;99.72
5522;BME280;2783;48.730;8.006;2023-02-10T07:29:28;102347.19;;;-0.50;100.00
5522;BME280;2783;48.730;8.006;2023-02-10T07:31:53;102345.25;;;-0.37;99.73
5522;BME280;2783;48.730;8.006;2023-02-10T07:34:18;102348.84;;;0.02;100.00
5522;BME280;2783;48.730;8.006;2023-02-10T07:36:46;102346.28;;;0.40;100.00
5522;BME280;2783;48.730;8.006;2023-02-10T07:39:11;102352.06;;;1.11;100.00
5522;BME280;2783;48.730;8.006;2023-02-10T07:41:36;102352.31;;;1.80;100.00
5522;BME280;2783;48.730;8.006;2023-02-10T07:44:02;102352.09;;;1.96;97.37
5522;BME280;2783;48.730;8.006;2023-02-10T07:46:27;102347.03;;;2.46;96.77
5522;BME280;2783;48.730;8.006;2023-02-10T07:48:52;102343.69;;;3.23;94.89
5522;BME280;2783;48.730;8.006;2023-02-10T07:51:18;102335.00;;;4.35;90.97
5522;BME280;2783;48.730;8.006;2023-02-10T07:53:43;102334.72;;;5.19;85.13
5522;BME280;2783;48.730;8.006;2023-02-10T07:56:08;102334.06;;;5.97;80.61
5522;BME280;2783;48.730;8.006;2023-02-10T07:58:34;102342.00;;;6.79;74.28
5522;BME280;2783;48.730;8.006;2023-02-10T08:01:05;102345.28;;;7.61;66.83
5522;BME280;2783;48.730;8.006;2023-02-10T08:03:30;102348.72;;;8.13;58.87
5522;BME280;2783;48.730;8.006;2023-02-10T08:05:55;102350.22;;;8.54;55.67
5522;BME280;2783;48.730;8.006;2023-02-10T08:08:20;102345.56;;;9.09;54.00
5522;BME280;2783;48.730;8.006;2023-02-10T08:10:46;102356.59;;;9.47;50.80
5522;BME280;2783;48.730;8.006;2023-02-10T08:13:11;102354.91;;;9.58;50.10
5522;BME280;2783;48.730;8.006;2023-02-10T08:15:36;102371.03;;;9.79;49.75
5522;BME280;2783;48.730;8.006;2023-02-10T08:18:02;102369.41;;;9.95;48.60
5522;BME280;2783;48.730;8.006;2023-02-10T08:20:27;102366.94;;;10.22;47.49
5522;BME280;2783;48.730;8.006;2023-02-10T08:22:56;102373.31;;;10.49;48.13
5522;BME280;2783;48.730;8.006;2023-02-10T08:25:22;102362.72;;;10.55;46.10
5522;BME280;2783;48.730;8.006;2023-02-10T08:27:47;102366.47;;;11.18;45.56
5522;BME280;2783;48.730;8.006;2023-02-10T08:30:12;102358.59;;;11.66;45.22
5522;BME280;2783;48.730;8.006;2023-02-10T08:32:38;102361.22;;;12.05;44.85
5522;BME280;2783;48.730;8.006;2023-02-10T08:35:03;102362.03;;;12.46;43.22
5522;BME280;2783;48.730;8.006;2023-02-10T08:37:29;102361.94;;;12.75;42.38
5522;BME280;2783;48.730;8.006;2023-02-10T08:39:54;102361.84;;;12.94;42.04
5522;BME280;2783;48.730;8.006;2023-02-10T08:42:19;102360.13;;;12.78;41.44
5522;BME280;2783;48.730;8.006;2023-02-10T08:44:44;102357.34;;;13.05;41.63
5522;BME280;2783;48.730;8.006;2023-02-10T08:47:10;102350.88;;;13.46;40.76
5522;BME280;2783;48.730;8.006;2023-02-10T08:49:38;102349.59;;;13.89;40.08
5522;BME280;2783;48.730;8.006;2023-02-10T08:52:03;102351.38;;;13.91;39.79
5522;BME280;2783;48.730;8.006;2023-02-10T08:54:29;102353.41;;;13.64;40.35
5522;BME280;2783;48.730;8.006;2023-02-10T08:56:54;102353.41;;;13.59;40.35
5522;BME280;2783;48.730;8.006;2023-02-10T08:59:19;102358.75;;;13.61;40.25
5522;BME280;2783;48.730;8.006;2023-02-10T09:01:45;102372.19;;;13.53;40.03
5522;BME280;2783;48.730;8.006;2023-02-10T09:04:10;102377.50;;;13.56;39.66
5522;BME280;2783;48.730;8.006;2023-02-10T09:06:37;102366.13;;;13.29;40.38
5522;BME280;2783;48.730;8.006;2023-02-10T09:09:06;102372.34;;;13.31;40.21
5522;BME280;2783;48.730;8.006;2023-02-10T09:11:32;102375.81;;;13.46;40.57
5522;BME280;2783;48.730;8.006;2023-02-10T09:13:57;102373.06;;;13.57;40.68
5522;BME280;2783;48.730;8.006;2023-02-10T09:16:22;102365.47;;;14.07;39.42
5522;BME280;2783;48.730;8.006;2023-02-10T09:18:48;102363.72;;;14.06;39.07
5522;BME280;2783;48.730;8.006;2023-02-10T09:21:13;102373.09;;;13.52;39.97
5522;BME280;2783;48.730;8.006;2023-02-10T09:23:38;102370.44;;;13.51;39.97
5522;BME280;2783;48.730;8.006;2023-02-10T09:26:03;102362.28;;;13.69;40.06
5522;BME280;2783;48.730;8.006;2023-02-10T09:28:29;102356.69;;;13.96;39.20
5522;BME280;2783;48.730;8.006;2023-02-10T09:30:54;102354.25;;;14.58;39.25
5522;BME280;2783;48.730;8.006;2023-02-10T09:33:20;102361.25;;;14.71;39.05
5522;BME280;2783;48.730;8.006;2023-02-10T09:35:45;102351.88;;;15.05;37.60
5522;BME280;2783;48.730;8.006;2023-02-10T09:38:11;102358.09;;;15.09;37.74
5522;BME280;2783;48.730;8.006;2023-02-10T09:43:16;102345.50;;;15.15;38.12
5522;BME280;2783;48.730;8.006;2023-02-10T09:45:46;102353.59;;;15.09;38.03
5522;BME280;2783;48.730;8.006;2023-02-10T09:53:12;102364.56;;;14.91;37.71
5522;BME280;2783;48.730;8.006;2023-02-10T09:55:47;102359.56;;;14.64;38.44
5522;BME280;2783;48.730;8.006;2023-02-10T09:58:18;102365.19;;;14.43;39.09
5522;BME280;2783;48.730;8.006;2023-02-10T10:00:45;102356.53;;;14.12;39.69
5522;BME280;2783;48.730;8.006;2023-02-10T10:03:13;102361.81;;;14.17;39.36
5522;BME280;2783;48.730;8.006;2023-02-10T10:08:07;102372.16;;;14.53;38.40
5522;BME280;2783;48.730;8.006;2023-02-10T10:10:38;102378.34;;;13.67;39.75
5522;BME280;2783;48.730;8.006;2023-02-10T10:13:28;102374.94;;;13.43;40.92
5522;BME280;2783;48.730;8.006;2023-02-10T10:21:16;102375.63;;;13.73;40.71
5522;BME280;2783;48.730;8.006;2023-02-10T10:31:10;102378.03;;;14.03;40.17
5522;BME280;2783;48.730;8.006;2023-02-10T10:33:39;102377.81;;;14.24;40.66
5522;BME280;2783;48.730;8.006;2023-02-10T10:36:14;102374.22;;;14.33;40.92
5522;BME280;2783;48.730;8.006;2023-02-10T10:38:41;102372.25;;;14.47;40.01
5522;BME280;2783;48.730;8.006;2023-02-10T10:41:10;102375.28;;;14.91;39.35
5522;BME280;2783;48.730;8.006;2023-02-10T10:43:46;102377.09;;;14.91;39.03
5522;BME280;2783;48.730;8.006;2023-02-10T10:46:13;102369.53;;;14.50;38.49
5522;BME280;2783;48.730;8.006;2023-02-10T10:48:40;102372.25;;;14.47;40.62
5522;BME280;2783;48.730;8.006;2023-02-10T10:51:06;102377.31;;;14.74;39.51
5522;BME280;2783;48.730;8.006;2023-02-10T10:53:42;102375.47;;;14.76;38.66
5522;BME280;2783;48.730;8.006;2023-02-10T10:58:42;102369.38;;;14.64;40.57
5522;BME280;2783;48.730;8.006;2023-02-10T11:01:09;102357.81;;;14.60;39.52
5522;BME280;2783;48.730;8.006;2023-02-10T11:03:35;102352.47;;;14.60;39.18
5522;BME280;2783;48.730;8.006;2023-02-10T11:08:42;102354.97;;;15.42;39.61
5522;BME280;2783;48.730;8.006;2023-02-10T11:11:13;102349.59;;;15.40;38.91
5522;BME280;2783;48.730;8.006;2023-02-10T11:13:40;102345.56;;;15.68;38.64
5522;BME280;2783;48.730;8.006;2023-02-10T11:16:06;102343.50;;;15.86;37.25
5522;BME280;2783;48.730;8.006;2023-02-10T11:18:35;102343.28;;;15.44;37.98
5522;BME280;2783;48.730;8.006;2023-02-10T11:21:04;102350.22;;;14.95;40.13
5522;BME280;2783;48.730;8.006;2023-02-10T11:23:30;102305.75;;;14.82;39.62
5522;BME280;2783;48.730;8.006;2023-02-10T11:25:59;102342.47;;;15.36;38.29
5522;BME280;2783;48.730;8.006;2023-02-10T11:28:26;102350.31;;;15.53;38.73
5522;BME280;2783;48.730;8.006;2023-02-10T11:30:57;102352.09;;;15.52;36.91
5522;BME280;2783;48.730;8.006;2023-02-10T11:33:24;102350.81;;;15.17;38.17
5522;BME280;2783;48.730;8.006;2023-02-10T11:35:51;102346.72;;;14.90;38.20
5522;BME280;2783;48.730;8.006;2023-02-10T11:38:19;102344.28;;;15.34;38.26
5522;BME280;2783;48.730;8.006;2023-02-10T11:40:55;102342.50;;;15.35;37.65
5522;BME280;2783;48.730;8.006;2023-02-10T11:43:31;102344.94;;;14.89;39.75
5522;BME280;2783;48.730;8.006;2023-02-10T11:45:58;102340.84;;;14.61;38.35
5522;BME280;2783;48.730;8.006;2023-02-10T11:48:24;102342.84;;;14.44;40.27
5522;BME280;2783;48.730;8.006;2023-02-10T11:51:00;102335.84;;;14.99;37.29
5522;BME280;2783;48.730;8.006;2023-02-10T11:53:26;102336.91;;;14.91;38.09
5522;BME280;2783;48.730;8.006;2023-02-10T11:56:13;102330.59;;;14.93;38.77
5522;BME280;2783;48.730;8.006;2023-02-10T12:06:41;102317.09;;;15.58;38.12
5522;BME280;2783;48.730;8.006;2023-02-10T12:09:15;102314.13;;;15.75;36.23
5522;BME280;2783;48.730;8.006;2023-02-10T12:11:54;102320.75;;;16.05;36.19
5522;BME280;2783;48.730;8.006;2023-02-10T12:14:38;102310.94;;;15.53;36.58
5522;BME280;2783;48.730;8.006;2023-02-10T12:25:09;102295.75;;;16.03;36.35
5522;BME280;2783;48.730;8.006;2023-02-10T12:27:40;102300.34;;;16.42;35.81
5522;BME280;2783;48.730;8.006;2023-02-10T12:35:33;102292.78;;;17.03;35.28
5522;BME280;2783;48.730;8.006;2023-02-10T12:45:32;102288.25;;;16.64;34.68
5522;BME280;2783;48.730;8.006;2023-02-10T12:48:18;102292.38;;;16.39;36.53
5522;BME280;2783;48.730;8.006;2023-02-10T12:50:50;102284.97;;;16.91;35.42
5522;BME280;2783;48.730;8.006;2023-02-10T12:53:24;102281.91;;;17.44;35.24
5522;BME280;2783;48.730;8.006;2023-02-10T12:58:21;102275.13;;;17.28;32.73
5522;BME280;2783;48.730;8.006;2023-02-10T13:01:04;102282.88;;;16.64;35.27
5522;BME280;2783;48.730;8.006;2023-02-10T13:03:31;102285.72;;;16.58;34.69
5522;BME280;2783;48.730;8.006;2023-02-10T13:08:53;102277.78;;;16.52;33.84
5522;BME280;2783;48.730;8.006;2023-02-10T13:11:33;102273.34;;;16.04;32.49
5522;BME280;2783;48.730;8.006;2023-02-10T13:13:59;102278.91;;;15.95;33.63
5522;BME280;2783;48.730;8.006;2023-02-10T13:16:28;102276.09;;;16.45;35.63
5522;BME280;2783;48.730;8.006;2023-02-10T13:21:25;102284.59;;;16.68;32.66
5522;BME280;2783;48.730;8.006;2023-02-10T13:23:53;102274.06;;;16.97;33.00
5522;BME280;2783;48.730;8.006;2023-02-10T13:26:28;102276.72;;;17.00;32.84
5522;BME280;2783;48.730;8.006;2023-02-10T13:34:17;102271.19;;;16.66;32.25
5522;BME280;2783;48.730;8.006;2023-02-10T13:36:44;102271.09;;;16.27;33.68
5522;BME280;2783;48.730;8.006;2023-02-10T13:41:38;102259.84;;;17.30;32.08
5522;BME280;2783;48.730;8.006;2023-02-10T13:44:18;102272.19;;;17.39;31.70
5522;BME280;2783;48.730;8.006;2023-02-10T13:46:45;102271.44;;;17.32;30.22
5522;BME280;2783;48.730;8.006;2023-02-10T13:49:15;102274.22;;;16.91;31.75
5522;BME280;2783;48.730;8.006;2023-02-10T13:51:41;102270.44;;;16.60;30.53
5522;BME280;2783;48.730;8.006;2023-02-10T13:54:11;102265.09;;;16.14;31.97
5522;BME280;2783;48.730;8.006;2023-02-10T13:56:52;102271.88;;;15.88;30.42
5522;BME280;2783;48.730;8.006;2023-02-10T14:01:46;102271.00;;;14.02;35.13
5522;BME280;2783;48.730;8.006;2023-02-10T14:06:41;102270.38;;;12.44;37.36
5522;BME280;2783;48.730;8.006;2023-02-10T14:09:18;102272.38;;;11.73;37.58
5522;BME280;2783;48.730;8.006;2023-02-10T14:11:43;102267.94;;;11.36;39.00
5522;BME280;2783;48.730;8.006;2023-02-10T14:16:42;102270.53;;;10.76;40.84
5522;BME280;2783;48.730;8.006;2023-02-10T14:19:28;102273.09;;;10.50;41.23
5522;BME280;2783;48.730;8.006;2023-02-10T14:21:55;102274.78;;;10.33;42.57
5522;BME280;2783;48.730;8.006;2023-02-10T14:24:24;102271.19;;;10.19;42.67
5522;BME280;2783;48.730;8.006;2023-02-10T14:26:50;102267.63;;;10.14;43.28
5522;BME280;2783;48.730;8.006;2023-02-10T14:29:16;102264.84;;;10.02;42.87
5522;BME280;2783;48.730;8.006;2023-02-10T14:31:42;102266.59;;;9.98;43.75
5522;BME280;2783;48.730;8.006;2023-02-10T14:36:53;102273.78;;;10.08;43.52
5522;BME280;2783;48.730;8.006;2023-02-10T14:39:22;102271.97;;;10.07;44.09
5522;BME280;2783;48.730;8.006;2023-02-10T14:41:49;102271.88;;;9.92;43.96
5522;BME280;2783;48.730;8.006;2023-02-10T14:46:49;102271.88;;;9.86;43.61
5522;BME280;2783;48.730;8.006;2023-02-10T14:49:15;102269.09;;;9.70;44.16
5522;BME280;2783;48.730;8.006;2023-02-10T14:51:44;102268.16;;;9.63;44.04
5522;BME280;2783;48.730;8.006;2023-02-10T14:54:17;102268.06;;;9.51;44.93
5522;BME280;2783;48.730;8.006;2023-02-10T14:56:53;102262.66;;;9.39;45.93
5522;BME280;2783;48.730;8.006;2023-02-10T14:59:28;102263.53;;;9.38;45.54
5522;BME280;2783;48.730;8.006;2023-02-10T15:01:54;102262.56;;;9.25;45.46
5522;BME280;2783;48.730;8.006;2023-02-10T15:04:20;102269.59;;;9.22;46.65